createdAt,value
2022-08-03T00:01:40.591Z,28.15
2022-08-03T00:08:02.521Z,28.17
2022-08-03T00:14:36.609Z,28.14
2022-08-03T00:21:03.077Z,28.17
2022-08-03T00:27:32.529Z,28.16
2022-08-03T00:34:06.961Z,28.18
2022-08-03T00:40:54.225Z,28.19
2022-08-03T00:47:38.222Z,28.11
2022-08-03T00:54:14.065Z,28.14
2022-08-03T01:00:51.395Z,28.14
2022-08-03T01:07:40.962Z,28.16
2022-08-03T01:14:51.216Z,28.18
2022-08-03T01:22:08.067Z,28.24
2022-08-03T01:29:14.344Z,28.19
2022-08-03T01:36:23.530Z,28.2
2022-08-03T01:43:54.994Z,28.19
2022-08-03T01:50:18.233Z,28.17
2022-08-03T01:57:05.762Z,28.16
2022-08-03T02:03:56.700Z,28.17
2022-08-03T02:10:34.421Z,28.15
2022-08-03T02:17:38.823Z,28.06
2022-08-03T02:24:18.107Z,28.06
2022-08-03T02:31:12.156Z,28.06
2022-08-03T02:38:09.415Z,28.09
2022-08-03T02:44:50.039Z,28.05
2022-08-03T02:51:39.176Z,28.03
2022-08-03T02:58:12.531Z,28.08
2022-08-03T03:04:45.089Z,28
2022-08-03T03:11:27.987Z,28.06
2022-08-03T03:18:02.339Z,27.97
2022-08-03T03:24:45.104Z,28
2022-08-03T03:31:29.036Z,27.99
2022-08-03T03:37:54.219Z,28
2022-08-03T03:44:27.194Z,27.94
2022-08-03T03:51:06.380Z,28
2022-08-03T03:58:00.240Z,27.96
2022-08-03T04:04:38.559Z,28.01
2022-08-03T04:11:16.461Z,27.72
2022-08-03T04:17:59.685Z,27.48
2022-08-03T04:24:52.413Z,27.42
2022-08-03T04:31:43.371Z,27.39
2022-08-03T04:38:33.142Z,27.31
2022-08-03T04:45:33.052Z,27.29
2022-08-03T04:52:16.483Z,27.25
2022-08-03T04:58:46.350Z,27.18
2022-08-03T05:05:13.153Z,27.17
2022-08-03T05:11:39.134Z,27.13
2022-08-03T05:18:04.274Z,27.1
2022-08-03T05:24:36.804Z,27.11
2022-08-03T05:31:18.429Z,27.06
2022-08-03T05:37:54.614Z,27.04
2022-08-03T05:44:21.637Z,27.03
2022-08-03T05:50:53.248Z,27
2022-08-03T05:57:31.493Z,26.99
2022-08-03T06:04:09.264Z,27.01
2022-08-03T06:10:45.909Z,26.95
2022-08-03T06:17:14.169Z,26.95
2022-08-03T06:23:52.698Z,26.91
2022-08-03T06:30:27.753Z,26.98
2022-08-03T06:37:01.474Z,27.03
2022-08-03T06:43:30.239Z,27.05
2022-08-03T06:50:13.115Z,27.29
2022-08-03T06:57:03.060Z,27.26
2022-08-03T07:03:27.258Z,27.24
2022-08-03T07:09:56.546Z,27.24
2022-08-03T07:16:25.623Z,27.24
2022-08-03T07:22:52.337Z,27.24
2022-08-03T07:29:17.026Z,27.25
2022-08-03T07:35:55.285Z,27.28
2022-08-03T07:42:18.718Z,27.3
2022-08-03T07:48:53.414Z,27.33
2022-08-03T07:55:27.117Z,27.3
2022-08-03T08:01:48.915Z,27.35
2022-08-03T08:08:11.634Z,27.37
2022-08-03T08:14:42.290Z,27.42
2022-08-03T08:21:08.837Z,27.42
2022-08-03T08:28:21.882Z,27.44
2022-08-03T08:34:45.647Z,27.54
2022-08-03T08:41:15.221Z,27.58
2022-08-03T08:47:50.750Z,27.54
2022-08-03T08:54:44.399Z,27.66
2022-08-03T09:01:27.652Z,27.65
2022-08-03T09:07:58.270Z,27.57
2022-08-03T09:14:45.499Z,27.52
2022-08-03T09:21:42.602Z,27.52
2022-08-03T09:28:54.012Z,27.51
2022-08-03T09:35:58.006Z,27.51
2022-08-03T09:42:58.309Z,27.54
2022-08-03T09:49:41.015Z,27.6
2022-08-03T09:56:35.435Z,27.65
2022-08-03T10:03:35.381Z,27.79
2022-08-03T10:10:34.779Z,27.85
2022-08-03T10:17:17.474Z,27.87
2022-08-03T10:24:00.548Z,27.89
2022-08-03T10:30:48.810Z,27.96
2022-08-03T10:37:56.468Z,27.88
2022-08-03T10:45:01.370Z,27.78
2022-08-03T10:51:41.769Z,27.61
2022-08-03T10:58:53.171Z,27.77
2022-08-03T11:05:49.790Z,27.73
2022-08-03T11:12:32.070Z,27.7
2022-08-03T11:19:23.404Z,27.7
2022-08-03T11:26:19.427Z,27.69
2022-08-03T11:33:16.701Z,27.7
2022-08-03T11:40:07.357Z,27.65
2022-08-03T11:46:53.266Z,27.64
2022-08-03T11:53:54.388Z,27.58
2022-08-03T12:00:57.924Z,27.54
2022-08-03T12:08:02.987Z,27.62
2022-08-03T12:14:54.893Z,27.57
2022-08-03T12:21:44.480Z,27.63
2022-08-03T12:28:58.314Z,27.63
2022-08-03T12:35:59.578Z,27.57
2022-08-03T12:43:14.663Z,27.54
2022-08-03T12:49:50.408Z,27.63
2022-08-03T12:56:38.578Z,27.61
2022-08-03T13:03:39.868Z,27.67
2022-08-03T13:10:24.817Z,27.7
2022-08-03T13:17:20.166Z,27.69
2022-08-03T13:23:49.003Z,27.72
2022-08-03T13:30:28.257Z,27.65
2022-08-03T13:37:11.897Z,27.78
2022-08-03T13:44:06.797Z,27.68
2022-08-03T13:51:24.901Z,27.56
2022-08-03T13:58:55.542Z,27.45
2022-08-03T14:06:10.458Z,27.64
2022-08-03T14:13:38.362Z,27.54
2022-08-03T14:21:12.929Z,27.47
2022-08-03T14:28:45.254Z,27.43
2022-08-03T14:36:31.334Z,27.43
2022-08-03T14:44:04.722Z,27.4
2022-08-03T14:51:51.743Z,27.39
2022-08-03T14:59:53.955Z,27.41
2022-08-03T15:07:17.078Z,27.45
2022-08-03T15:14:45.590Z,27.46
2022-08-03T15:22:25.050Z,27.46
2022-08-03T15:30:09.760Z,27.44
2022-08-03T15:37:44.984Z,27.46
2022-08-03T15:45:14.172Z,27.5
2022-08-03T15:53:31.550Z,27.5
2022-08-03T16:01:04.974Z,27.53
2022-08-03T16:08:33.224Z,27.55
2022-08-03T16:16:06.494Z,27.56
2022-08-03T16:23:50.946Z,27.56
2022-08-03T16:31:28.774Z,27.57
2022-08-03T16:39:12.690Z,27.56
2022-08-03T16:46:48.768Z,27.55
2022-08-03T16:54:21.165Z,27.56
2022-08-03T17:02:05.481Z,27.57
2022-08-03T17:09:51.386Z,27.58
2022-08-03T17:17:47.552Z,27.62
2022-08-03T17:26:01.933Z,27.65
2022-08-03T17:34:18.151Z,27.78
2022-08-03T17:42:29.831Z,27.85
2022-08-03T17:49:58.761Z,28.02
2022-08-03T17:58:13.515Z,27.98
2022-08-03T18:06:13.444Z,27.75
2022-08-03T18:14:16.226Z,27.85
2022-08-03T18:29:50.969Z,27.85
2022-08-03T18:37:51.754Z,27.88
2022-08-03T18:45:55.547Z,27.9
2022-08-03T18:54:06.044Z,27.97
2022-08-03T19:02:25.038Z,27.95
2022-08-03T19:10:22.101Z,28
2022-08-03T19:18:29.473Z,27.95
2022-08-03T19:26:26.704Z,27.94
2022-08-03T19:34:02.039Z,27.94
2022-08-03T19:41:41.789Z,27.93
2022-08-03T19:49:49.639Z,28.02
2022-08-03T19:57:59.649Z,27.93
2022-08-03T20:13:39.002Z,27.93
2022-08-03T20:21:20.893Z,27.98
2022-08-03T20:29:14.318Z,27.89
2022-08-03T20:36:48.957Z,28
2022-08-03T20:44:26.201Z,27.99
2022-08-03T20:51:59.704Z,27.91
2022-08-03T20:59:47.559Z,27.96
2022-08-03T21:07:45.796Z,28.11
2022-08-03T21:13:06.577Z,27.89
2022-08-03T21:16:14.897Z,28.16
2022-08-03T21:24:23.936Z,28.2
2022-08-03T21:32:02.117Z,28.17
2022-08-03T21:39:57.741Z,28.16
2022-08-03T21:47:32.676Z,28.12
2022-08-03T21:55:20.987Z,28.23
2022-08-03T22:03:12.024Z,28.02
2022-08-03T22:10:47.108Z,27.94
2022-08-03T22:18:17.172Z,27.92
2022-08-03T22:25:55.970Z,27.96
2022-08-03T22:33:39.794Z,27.91
2022-08-03T22:41:20.288Z,27.95
2022-08-03T22:48:55.547Z,28.02
2022-08-03T22:56:35.175Z,28.01
2022-08-03T23:04:11.767Z,28.02
2022-08-03T23:11:56.803Z,28.05
2022-08-03T23:19:45.522Z,28.07
2022-08-03T23:27:14.581Z,28.07
2022-08-03T23:34:27.838Z,28.23
2022-08-03T23:41:40.917Z,28.25
2022-08-03T23:48:29.706Z,28.36
2022-08-03T23:55:35.946Z,28.47
